Time;durP1;ratioP1;P1;durP2;ratioP2;P2;SDS_P1;SDS_P2;PMS_P1;PMS_P2;Temp;Humidity;BMP_temperature;BMP_pressure;BME280_temperature;BME280_humidity;BME280_pressure;Samples;Min_cycle;Max_cycle;Signal;HPM_P1;HPM_P2
2021/05/24 00:00:16;;;;;;;2.27;1.40;;;16.60;99.90;;;;;;5123527;27;20224;-73
2021/05/24 00:02:44;;;;;;;2.50;1.33;;;16.50;99.90;;;;;;5108438;27;20189;-72
2021/05/24 00:05:16;;;;;;;1.50;1.30;;;16.50;99.90;;;;;;5109074;27;20566;-74
2021/05/24 00:07:43;;;;;;;4.13;1.40;;;16.50;99.90;;;;;;5106800;27;20246;-69
2021/05/24 00:10:15;;;;;;;3.13;1.40;;;16.40;99.90;;;;;;5112254;27;20189;-72
2021/05/24 00:12:49;;;;;;;2.70;1.30;;;16.30;99.90;;;;;;5093666;27;20262;-72
2021/05/24 00:15:38;;;;;;;3.03;1.30;;;16.30;99.90;;;;;;5109944;27;20200;-74
2021/05/24 00:18:06;;;;;;;5.90;1.30;;;16.40;99.90;;;;;;5106686;27;20550;-73
2021/05/24 00:20:41;;;;;;;1.80;1.30;;;16.30;99.90;;;;;;5089430;27;20207;-71
2021/05/24 00:23:08;;;;;;;3.90;1.60;;;16.30;99.90;;;;;;5088956;27;20267;-74
2021/05/24 00:25:35;;;;;;;1.30;1.17;;;16.30;99.90;;;;;;5087503;27;20232;-71
2021/05/24 00:28:01;;;;;;;1.53;1.10;;;16.30;99.90;;;;;;5092052;27;20652;-71
2021/05/24 00:30:33;;;;;;;2.20;1.20;;;16.30;99.90;;;;;;5105291;27;20181;-72
2021/05/24 00:33:04;;;;;;;1.40;1.30;;;16.30;99.90;;;;;;5123551;27;20182;-73
2021/05/24 00:35:31;;;;;;;1.73;1.27;;;16.40;99.90;;;;;;5109846;27;20553;-71
2021/05/24 00:37:58;;;;;;;3.07;1.17;;;16.30;99.90;;;;;;5125409;27;20684;-72
2021/05/24 00:40:24;;;;;;;2.43;1.23;;;16.30;99.90;;;;;;5104465;27;20236;-74
2021/05/24 00:42:51;;;;;;;1.33;1.00;;;16.40;99.90;;;;;;5095688;27;20224;-72
2021/05/24 00:45:18;;;;;;;1.83;1.20;;;16.40;99.90;;;;;;5091213;27;20201;-71
2021/05/24 00:47:45;;;;;;;2.37;1.30;;;16.30;99.90;;;;;;5103802;27;20181;-73
2021/05/24 00:50:12;;;;;;;2.13;1.30;;;16.30;99.90;;;;;;5091409;27;20744;-72
2021/05/24 00:52:38;;;;;;;1.60;1.10;;;16.30;99.90;;;;;;5107643;27;20188;-73
2021/05/24 00:55:07;;;;;;;1.10;1.00;;;16.30;99.90;;;;;;5109439;27;20207;-72
2021/05/24 00:57:35;;;;;;;3.47;1.00;;;16.30;99.90;;;;;;5088105;27;20199;-72
2021/05/24 01:00:03;;;;;;;1.67;1.00;;;16.30;99.90;;;;;;5126962;27;20267;-71
2021/05/24 01:02:29;;;;;;;1.43;1.00;;;16.30;99.90;;;;;;5104910;27;20189;-73
2021/05/24 01:04:55;;;;;;;1.50;1.03;;;16.30;99.90;;;;;;5123613;27;20189;-72
2021/05/24 01:07:22;;;;;;;1.63;1.00;;;16.30;99.90;;;;;;5088135;27;20212;-73
2021/05/24 01:09:48;;;;;;;1.63;1.00;;;16.30;99.90;;;;;;5106282;27;20189;-72
2021/05/24 01:12:14;;;;;;;4.00;1.10;;;16.30;99.90;;;;;;5120381;27;20217;-72
2021/05/24 01:14:41;;;;;;;1.30;1.10;;;16.30;99.90;;;;;;5105173;27;20185;-72
2021/05/24 01:17:07;;;;;;;1.43;1.00;;;16.20;99.90;;;;;;5104156;27;20197;-71
2021/05/24 01:19:42;;;;;;;2.40;1.10;;;16.20;99.90;;;;;;5091718;27;20232;-71
2021/05/24 01:22:14;;;;;;;4.17;1.13;;;16.20;99.90;;;;;;5101890;27;20186;-71
2021/05/24 01:24:40;;;;;;;1.37;0.87;;;16.20;99.90;;;;;;5106712;27;20192;-72
2021/05/24 01:27:07;;;;;;;1.57;0.90;;;16.30;99.90;;;;;;5109754;27;20209;-71
2021/05/24 01:29:33;;;;;;;2.77;1.13;;;16.40;99.90;;;;;;5124353;27;20306;-75
2021/05/24 01:31:59;;;;;;;3.00;1.00;;;16.40;99.90;;;;;;5105128;27;20189;-70
2021/05/24 01:34:26;;;;;;;4.10;0.90;;;16.30;99.90;;;;;;5111716;27;20191;-71
2021/05/24 01:36:52;;;;;;;1.17;0.90;;;16.20;99.90;;;;;;5106094;27;20184;-72
2021/05/24 01:39:20;;;;;;;1.63;0.80;;;16.20;99.90;;;;;;5092010;27;20342;-71
2021/05/24 01:41:47;;;;;;;1.40;1.00;;;16.20;99.90;;;;;;5124637;27;20200;-70
2021/05/24 01:44:25;;;;;;;5.17;1.10;;;16.20;99.90;;;;;;5106326;27;20192;-71
2021/05/24 01:46:52;;;;;;;0.93;0.80;;;16.20;99.90;;;;;;5108807;27;20185;-70
2021/05/24 01:49:18;;;;;;;2.67;1.10;;;16.20;99.90;;;;;;5108137;27;20185;-70
2021/05/24 01:51:44;;;;;;;2.70;1.00;;;16.20;99.90;;;;;;5107388;27;20295;-70
2021/05/24 01:54:12;;;;;;;1.40;0.70;;;16.10;99.90;;;;;;5124699;27;20195;-72
2021/05/24 01:56:38;;;;;;;2.97;0.97;;;16.10;99.90;;;;;;5108644;27;20188;-73
2021/05/24 01:59:04;;;;;;;0.80;0.80;;;16.10;99.90;;;;;;5122322;27;20799;-70
2021/05/24 02:01:31;;;;;;;1.63;0.87;;;16.20;99.90;;;;;;5090959;27;20181;-72
2021/05/24 02:03:57;;;;;;;2.13;0.90;;;16.20;99.90;;;;;;5105838;27;20185;-71
2021/05/24 02:06:23;;;;;;;1.73;1.20;;;16.10;99.90;;;;;;5103553;27;20301;-70
2021/05/24 02:08:49;;;;;;;1.93;0.87;;;16.10;99.90;;;;;;5092540;27;20188;-70
2021/05/24 02:11:15;;;;;;;1.20;0.93;;;16.10;99.90;;;;;;5122686;27;20197;-70
2021/05/24 02:13:47;;;;;;;1.30;0.90;;;16.10;99.90;;;;;;5104472;27;20585;-70
2021/05/24 02:16:14;;;;;;;1.47;0.90;;;16.40;99.90;;;;;;5105484;28;20218;-72
2021/05/24 02:18:42;;;;;;;1.00;0.83;;;16.70;99.90;;;;;;5104060;28;20217;-73
2021/05/24 02:21:09;;;;;;;1.33;0.70;;;16.80;99.90;;;;;;5087230;28;20671;-73
2021/05/24 02:23:35;;;;;;;1.30;1.00;;;16.80;99.90;;;;;;5105640;27;20192;-74
2021/05/24 02:26:02;;;;;;;3.27;0.97;;;16.80;99.90;;;;;;5124044;27;20184;-73
2021/05/24 02:28:28;;;;;;;2.93;1.07;;;16.60;99.90;;;;;;5101510;28;20189;-71
2021/05/24 02:30:56;;;;;;;2.60;1.00;;;16.50;99.90;;;;;;5091952;28;20213;-72
2021/05/24 02:33:22;;;;;;;4.50;1.00;;;16.30;99.90;;;;;;5127220;27;20188;-74
2021/05/24 02:35:49;;;;;;;2.13;1.00;;;16.30;99.90;;;;;;5122424;27;20197;-71
2021/05/24 02:38:15;;;;;;;3.10;0.90;;;16.40;99.90;;;;;;5123376;27;20289;-73
2021/05/24 02:40:41;;;;;;;2.20;1.10;;;16.40;99.90;;;;;;5124091;27;20200;-73
2021/05/24 02:43:07;;;;;;;1.60;1.00;;;16.50;99.90;;;;;;5105300;28;20181;-73
2021/05/24 02:45:34;;;;;;;3.20;1.20;;;16.30;99.90;;;;;;5093977;28;20225;-72
2021/05/24 02:48:00;;;;;;;4.00;1.10;;;16.20;99.90;;;;;;5105474;28;20726;-72
2021/05/24 02:50:28;;;;;;;1.47;0.87;;;16.00;99.90;;;;;;5086488;27;20665;-72
2021/05/24 02:52:55;;;;;;;1.50;1.13;;;15.90;99.90;;;;;;5096111;28;20913;-71
2021/05/24 02:55:22;;;;;;;1.63;1.00;;;15.90;99.90;;;;;;5088121;28;20983;-70
2021/05/24 02:57:48;;;;;;;3.00;1.20;;;15.90;99.90;;;;;;5102815;27;20196;-72
2021/05/24 03:00:16;;;;;;;2.10;1.10;;;16.00;99.90;;;;;;5127792;27;20222;-73
2021/05/24 03:02:47;;;;;;;2.63;1.27;;;15.90;99.90;;;;;;5093100;27;20195;-72
2021/05/24 03:05:22;;;;;;;5.73;1.30;;;16.00;99.90;;;;;;5110784;27;20681;-72
2021/05/24 03:07:51;;;;;;;1.97;1.10;;;15.90;99.90;;;;;;5093043;27;20193;-72
2021/05/24 03:10:22;;;;;;;2.53;1.20;;;15.80;99.90;;;;;;5129712;27;20246;-72
2021/05/24 03:12:49;;;;;;;3.97;1.17;;;15.90;99.90;;;;;;5108473;27;20299;-72
2021/05/24 03:15:17;;;;;;;2.13;1.30;;;15.80;99.90;;;;;;5097117;27;20222;-71
2021/05/24 03:17:44;;;;;;;2.30;1.10;;;16.00;99.90;;;;;;5108941;27;20189;-73
2021/05/24 03:20:14;;;;;;;3.43;1.43;;;16.10;99.90;;;;;;5109954;27;20218;-73
2021/05/24 03:22:41;;;;;;;2.70;1.20;;;16.10;99.90;;;;;;5109401;27;20212;-70
2021/05/24 03:25:09;;;;;;;4.07;1.60;;;16.10;99.90;;;;;;5125696;27;20268;-70
2021/05/24 03:27:36;;;;;;;2.30;1.27;;;16.20;99.90;;;;;;5127431;27;20188;-71
2021/05/24 03:30:05;;;;;;;3.40;1.47;;;16.30;99.90;;;;;;5092538;27;20277;-70
2021/05/24 03:32:32;;;;;;;2.60;1.20;;;16.30;99.90;;;;;;5105239;27;20189;-73
2021/05/24 03:34:58;;;;;;;4.63;1.37;;;16.40;99.90;;;;;;5091978;27;20188;-72
2021/05/24 03:37:25;;;;;;;5.33;1.30;;;16.40;99.90;;;;;;5107193;27;20185;-72
2021/05/24 03:40:11;;;;;;;1.60;1.20;;;16.50;99.90;;;;;;5127522;27;20224;-72
2021/05/24 03:42:39;;;;;;;2.30;1.20;;;16.60;99.90;;;;;;5123702;27;20185;-73
2021/05/24 03:48:10;;;;;;;2.67;1.37;;;16.80;99.90;;;;;;5122093;27;20188;-72
2021/05/24 03:50:36;;;;;;;1.67;1.00;;;16.80;99.90;;;;;;5131142;27;20871;-72
2021/05/24 03:53:02;;;;;;;3.23;1.10;;;16.80;99.90;;;;;;5107773;27;20196;-73
2021/05/24 03:55:29;;;;;;;1.30;1.10;;;16.80;99.90;;;;;;5108178;27;20281;-72
2021/05/24 03:57:55;;;;;;;1.00;0.90;;;16.80;99.90;;;;;;5094766;27;20239;-72
2021/05/24 04:00:23;;;;;;;2.27;1.07;;;16.70;99.90;;;;;;5086264;27;20266;-74
2021/05/24 04:02:49;;;;;;;3.57;1.30;;;16.80;99.90;;;;;;5126461;27;20197;-72
2021/05/24 04:05:24;;;;;;;3.33;0.90;;;16.70;99.90;;;;;;5092386;27;20242;-73
2021/05/24 04:07:55;;;;;;;1.57;1.20;;;16.70;99.90;;;;;;5108950;27;20333;-71
2021/05/24 04:10:35;;;;;;;1.83;1.10;;;16.60;99.90;;;;;;5126125;27;20195;-72
2021/05/24 04:13:01;;;;;;;2.10;1.03;;;16.70;99.90;;;;;;5104906;27;20628;-73
2021/05/24 04:15:28;;;;;;;1.53;1.10;;;16.70;99.90;;;;;;5091613;27;20189;-73
2021/05/24 04:17:57;;;;;;;2.00;1.10;;;16.70;99.90;;;;;;5105502;27;20192;-73
2021/05/24 04:20:25;;;;;;;2.30;1.13;;;16.70;99.90;;;;;;5108426;27;20927;-72
2021/05/24 04:22:51;;;;;;;3.70;1.20;;;16.80;99.90;;;;;;5088928;27;20185;-72
2021/05/24 04:25:18;;;;;;;2.53;1.20;;;16.80;99.90;;;;;;5089579;27;20186;-72
2021/05/24 04:27:45;;;;;;;1.50;1.30;;;16.90;99.90;;;;;;5103428;27;20185;-72
2021/05/24 04:30:15;;;;;;;2.70;1.17;;;17.00;99.90;;;;;;5105165;27;20275;-73
2021/05/24 04:32:41;;;;;;;6.30;1.27;;;17.10;99.90;;;;;;5123847;27;20237;-73
2021/05/24 04:35:09;;;;;;;1.40;1.03;;;17.20;99.90;;;;;;5124310;27;20273;-72
2021/05/24 04:37:36;;;;;;;2.67;1.60;;;17.30;99.90;;;;;;5104259;27;20817;-74
2021/05/24 04:40:04;;;;;;;1.97;1.10;;;17.50;99.90;;;;;;5127125;27;20223;-72
2021/05/24 04:42:30;;;;;;;5.47;1.27;;;17.70;99.90;;;;;;5107184;27;20219;-72
2021/05/24 04:44:56;;;;;;;3.83;1.30;;;17.80;99.90;;;;;;5090871;27;20190;-72
2021/05/24 04:47:22;;;;;;;4.53;1.37;;;17.80;99.90;;;;;;5126011;27;20185;-70
2021/05/24 04:49:51;;;;;;;2.73;1.30;;;17.90;99.90;;;;;;5125343;27;20186;-72
2021/05/24 04:52:19;;;;;;;2.67;1.27;;;17.90;99.90;;;;;;5122721;27;20208;-73
2021/05/24 04:54:46;;;;;;;6.10;1.53;;;17.90;99.90;;;;;;5106483;27;20860;-72
2021/05/24 04:57:13;;;;;;;3.03;1.20;;;18.10;99.90;;;;;;5105323;27;20666;-72
2021/05/24 04:59:40;;;;;;;2.73;1.20;;;18.40;99.90;;;;;;5129241;27;20216;-72
2021/05/24 05:02:07;;;;;;;3.67;1.33;;;18.50;99.90;;;;;;5087600;27;20196;-69
2021/05/24 05:04:35;;;;;;;5.93;1.67;;;18.70;99.90;;;;;;5106760;27;20249;-70
2021/05/24 05:07:01;;;;;;;4.10;1.37;;;18.90;99.90;;;;;;5112476;27;20201;-70
2021/05/24 05:09:27;;;;;;;6.70;1.50;;;18.80;99.90;;;;;;5110771;27;20266;-70
2021/05/24 05:11:55;;;;;;;5.27;1.40;;;18.70;99.90;;;;;;5092595;27;20275;-72
2021/05/24 05:14:23;;;;;;;3.47;1.50;;;18.60;99.90;;;;;;5105648;27;20192;-70
2021/05/24 05:16:50;;;;;;;2.67;1.30;;;18.70;99.90;;;;;;5107354;27;20238;-72
2021/05/24 05:19:16;;;;;;;2.47;1.30;;;18.80;99.90;;;;;;5108480;27;20265;-72
2021/05/24 05:21:44;;;;;;;4.23;1.50;;;19.00;99.90;;;;;;5103420;27;20657;-72
2021/05/24 05:24:10;;;;;;;5.03;1.20;;;19.00;99.90;;;;;;5103338;27;20230;-73
2021/05/24 05:26:37;;;;;;;1.73;1.13;;;19.00;99.90;;;;;;5107289;27;20175;-72
2021/05/24 05:29:03;;;;;;;2.53;1.27;;;19.10;99.90;;;;;;5089876;27;20192;-72
2021/05/24 05:31:30;;;;;;;2.10;1.13;;;19.20;99.90;;;;;;5101180;27;20645;-71
2021/05/24 05:33:56;;;;;;;4.37;1.47;;;19.40;99.90;;;;;;5109123;27;20185;-72
2021/05/24 05:36:24;;;;;;;3.97;1.57;;;19.50;99.90;;;;;;5103993;27;20212;-72
2021/05/24 05:38:51;;;;;;;4.43;1.53;;;19.60;99.90;;;;;;5123436;27;20304;-71
2021/05/24 05:41:17;;;;;;;4.20;1.30;;;19.70;99.90;;;;;;5108837;27;20684;-73
2021/05/24 05:43:44;;;;;;;5.63;1.30;;;20.00;99.90;;;;;;5105957;27;20747;-72
2021/05/24 05:46:10;;;;;;;3.63;1.50;;;20.20;99.90;;;;;;5109401;27;20625;-72
2021/05/24 05:48:37;;;;;;;2.67;1.37;;;20.40;99.90;;;;;;5092346;27;20185;-73
2021/05/24 05:51:04;;;;;;;5.30;1.63;;;20.50;99.90;;;;;;5092013;27;20215;-71
2021/05/24 05:53:32;;;;;;;5.17;1.70;;;20.60;99.90;;;;;;5091494;27;20176;-71
2021/05/24 05:55:59;;;;;;;5.20;1.47;;;21.20;99.90;;;;;;5108883;27;20191;-72
2021/05/24 05:58:25;;;;;;;6.67;1.70;;;21.50;99.90;;;;;;5125409;27;20185;-72
2021/05/24 06:00:52;;;;;;;2.13;1.40;;;21.60;99.90;;;;;;5104450;27;20652;-72
2021/05/24 06:03:18;;;;;;;6.87;1.57;;;21.60;99.90;;;;;;5127255;27;20184;-71
2021/05/24 06:05:45;;;;;;;2.40;1.23;;;22.00;99.90;;;;;;5107284;27;20205;-72
2021/05/24 06:08:11;;;;;;;3.77;1.50;;;22.00;99.90;;;;;;5124137;27;20193;-71
2021/05/24 06:10:38;;;;;;;5.73;1.37;;;22.10;99.90;;;;;;5104372;27;20680;-72
2021/05/24 06:13:04;;;;;;;4.30;1.57;;;22.30;99.90;;;;;;5100690;27;20189;-71
2021/05/24 06:15:31;;;;;;;4.13;1.47;;;22.40;99.90;;;;;;5107170;27;20199;-72
2021/05/24 06:17:58;;;;;;;6.90;1.73;;;22.60;99.90;;;;;;5106073;27;20216;-73
2021/05/24 06:20:24;;;;;;;4.20;1.40;;;22.80;99.90;;;;;;5123479;27;20208;-71
2021/05/24 06:22:51;;;;;;;4.80;1.70;;;22.90;99.90;;;;;;5123303;27;20903;-70
2021/05/24 06:25:17;;;;;;;4.17;1.53;;;23.00;99.90;;;;;;5090654;28;20184;-69
2021/05/24 06:27:43;;;;;;;5.40;1.53;;;23.20;99.90;;;;;;5111494;27;20216;-71
2021/05/24 06:30:11;;;;;;;4.73;1.67;;;23.10;99.90;;;;;;5114072;28;20303;-70
2021/05/24 06:32:38;;;;;;;3.00;1.63;;;23.20;99.90;;;;;;5087997;27;20177;-71
2021/05/24 06:35:07;;;;;;;4.17;1.70;;;23.20;99.90;;;;;;5103698;28;20714;-70
2021/05/24 06:37:33;;;;;;;7.57;1.40;;;23.30;99.90;;;;;;5089227;28;20652;-70
2021/05/24 06:39:59;;;;;;;7.93;1.57;;;23.40;99.90;;;;;;5091253;27;20208;-73
2021/05/24 06:42:26;;;;;;;6.57;1.43;;;23.50;99.90;;;;;;5120814;27;20192;-68
2021/05/24 06:44:54;;;;;;;4.60;1.50;;;23.50;99.90;;;;;;5121073;27;20291;-72
2021/05/24 06:47:23;;;;;;;5.53;1.90;;;23.60;99.90;;;;;;5102413;28;20185;-70
2021/05/24 06:49:51;;;;;;;5.20;1.50;;;23.70;99.90;;;;;;5101977;28;20297;-72
2021/05/24 06:52:18;;;;;;;7.90;1.20;;;23.60;99.90;;;;;;5107707;27;20206;-72
2021/05/24 06:54:45;;;;;;;6.00;1.47;;;23.60;99.90;;;;;;5124152;27;20769;-73
2021/05/24 06:57:11;;;;;;;7.00;1.63;;;23.60;99.90;;;;;;5117557;27;20271;-71
2021/05/24 06:59:38;;;;;;;7.57;1.83;;;23.50;99.90;;;;;;5121891;27;20734;-72
2021/05/24 07:02:06;;;;;;;4.63;1.70;;;23.70;99.90;;;;;;5115094;27;20169;-70
2021/05/24 07:04:32;;;;;;;5.30;1.30;;;23.80;99.90;;;;;;5103887;28;20181;-71
2021/05/24 07:06:58;;;;;;;2.83;1.60;;;23.80;99.90;;;;;;5108437;28;20204;-70
2021/05/24 07:09:25;;;;;;;2.80;1.43;;;24.00;99.90;;;;;;5117860;27;20234;-71
2021/05/24 07:11:53;;;;;;;4.23;1.40;;;24.00;99.90;;;;;;5103884;28;20195;-70
2021/05/24 07:14:20;;;;;;;4.63;1.60;;;23.90;99.90;;;;;;5090808;28;20192;-71
2021/05/24 07:16:46;;;;;;;5.63;1.80;;;24.00;99.90;;;;;;5100841;28;20205;-71
2021/05/24 07:19:12;;;;;;;3.33;1.60;;;24.00;99.90;;;;;;5102611;27;20213;-72
2021/05/24 07:21:39;;;;;;;12.20;2.13;;;24.00;99.90;;;;;;5106652;27;20177;-71
2021/05/24 07:24:05;;;;;;;10.80;1.70;;;24.40;99.90;;;;;;5124671;27;20826;-72
2021/05/24 07:26:32;;;;;;;7.27;1.90;;;24.50;99.90;;;;;;5089322;28;20339;-71
2021/05/24 07:28:58;;;;;;;9.23;1.90;;;24.50;99.90;;;;;;5122434;27;20216;-72
2021/05/24 07:31:24;;;;;;;9.33;1.93;;;24.60;99.90;;;;;;5102127;28;20181;-70
2021/05/24 07:33:51;;;;;;;6.37;1.90;;;24.60;99.90;;;;;;5101710;27;20184;-70
2021/05/24 07:36:17;;;;;;;5.57;1.83;;;24.50;99.90;;;;;;5105007;28;20197;-71
2021/05/24 07:38:44;;;;;;;5.57;1.90;;;24.50;99.90;;;;;;5101578;28;20572;-71
2021/05/24 07:41:10;;;;;;;8.37;1.90;;;24.50;99.90;;;;;;5103314;28;20680;-70
2021/05/24 07:43:37;;;;;;;6.40;1.73;;;24.60;99.90;;;;;;5100741;28;20182;-71
2021/05/24 07:46:03;;;;;;;6.20;1.70;;;24.70;99.90;;;;;;5122116;27;20530;-72
2021/05/24 07:48:30;;;;;;;3.20;1.50;;;24.80;99.90;;;;;;5121704;27;20258;-71
2021/05/24 07:50:56;;;;;;;7.30;1.63;;;25.10;99.90;;;;;;5100620;27;20233;-73
2021/05/24 07:53:23;;;;;;;4.13;1.37;;;25.30;99.90;;;;;;5103364;27;20176;-72
2021/05/24 07:55:49;;;;;;;6.88;1.80;;;25.50;99.90;;;;;;5107377;27;20193;-74
2021/05/24 07:58:15;;;;;;;6.47;1.70;;;25.90;99.90;;;;;;5088228;27;20247;-72
2021/05/24 08:00:41;;;;;;;6.72;1.90;;;26.00;99.90;;;;;;5088821;27;20220;-73
2021/05/24 08:03:08;;;;;;;7.57;1.83;;;26.00;99.90;;;;;;5120787;27;20215;-72
2021/05/24 08:05:34;;;;;;;4.13;1.65;;;26.00;99.90;;;;;;5091890;27;20177;-70
2021/05/24 08:08:01;;;;;;;7.78;1.85;;;26.00;99.90;;;;;;5111185;27;20181;-71
2021/05/24 08:10:28;;;;;;;7.35;2.10;;;26.10;99.90;;;;;;5089147;27;20949;-72
2021/05/24 08:12:55;;;;;;;5.38;1.70;;;26.20;99.90;;;;;;5102631;27;20642;-72
2021/05/24 08:15:29;;;;;;;6.20;1.60;;;26.10;99.90;;;;;;5086407;27;20188;-72
2021/05/24 08:18:02;;;;;;;7.85;1.70;;;26.20;99.90;;;;;;5090486;27;20188;-72
2021/05/24 08:20:31;;;;;;;7.22;2.05;;;26.30;99.90;;;;;;5124091;27;20347;-71
2021/05/24 08:22:58;;;;;;;9.30;2.03;;;26.60;99.90;;;;;;5102440;27;20661;-72
2021/05/24 08:25:25;;;;;;;7.57;1.77;;;26.50;99.90;;;;;;5105031;27;20836;-72
2021/05/24 08:27:55;;;;;;;10.43;2.10;;;26.40;99.90;;;;;;5123718;27;20189;-71
2021/05/24 08:30:26;;;;;;;8.80;1.90;;;26.20;99.90;;;;;;5108435;27;21099;-71
2021/05/24 08:32:53;;;;;;;10.63;2.00;;;26.20;99.90;;;;;;5122852;27;20243;-72
2021/05/24 08:35:19;;;;;;;7.60;2.03;;;26.30;99.90;;;;;;5122228;27;20189;-71
2021/05/24 08:37:46;;;;;;;6.10;1.90;;;26.50;99.90;;;;;;5121637;27;20565;-72
2021/05/24 08:40:12;;;;;;;8.98;2.03;;;26.40;99.90;;;;;;5107108;27;20213;-71
2021/05/24 08:42:44;;;;;;;9.30;1.77;;;26.40;99.90;;;;;;5125166;27;20185;-71
2021/05/24 08:45:15;;;;;;;5.30;1.75;;;26.60;99.90;;;;;;5088308;27;20194;-71
2021/05/24 08:47:41;;;;;;;5.78;2.13;;;26.70;99.90;;;;;;5105455;27;20185;-71
2021/05/24 08:50:11;;;;;;;13.90;1.90;;;26.80;99.90;;;;;;5125299;27;20189;-71
2021/05/24 08:52:37;;;;;;;6.95;1.70;;;26.80;99.90;;;;;;5102738;27;20213;-71
2021/05/24 08:55:05;;;;;;;4.40;1.80;;;26.80;99.90;;;;;;5119101;27;20185;-71
2021/05/24 08:57:35;;;;;;;5.10;1.77;;;26.80;99.90;;;;;;5100941;27;20189;-71
2021/05/24 09:00:02;;;;;;;11.18;2.08;;;26.90;99.90;;;;;;5105343;27;20201;-72
2021/05/24 09:02:28;;;;;;;4.78;1.77;;;27.00;99.90;;;;;;5090166;27;20177;-71
2021/05/24 09:04:54;;;;;;;5.75;1.65;;;27.20;99.90;;;;;;5086497;27;20798;-69
2021/05/24 09:07:21;;;;;;;4.93;1.80;;;27.30;99.90;;;;;;5125411;27;20208;-69
2021/05/24 09:10:05;;;;;;;5.53;1.65;;;27.60;99.90;;;;;;5107769;27;20220;-70
2021/05/24 09:12:34;;;;;;;5.28;1.60;;;27.80;99.90;;;;;;5120763;27;20645;-69
2021/05/24 09:15:07;;;;;;;5.60;1.60;;;27.80;99.90;;;;;;5124191;27;20193;-70
2021/05/24 09:17:53;;;;;;;9.02;1.70;;;27.90;99.90;;;;;;5123883;27;20185;-70
2021/05/24 09:20:19;;;;;;;2.40;0.93;;;28.10;99.90;;;;;;5088271;27;20212;-70
2021/05/24 09:23:10;;;;;;;3.15;1.15;;;28.30;91.70;;;;;;5104935;27;20187;-70
2021/05/24 09:26:03;;;;;;;5.82;1.10;;;28.50;89.10;;;;;;5119312;27;20264;-70
2021/05/24 09:28:51;;;;;;;2.55;1.00;;;28.80;78.20;;;;;;5090481;27;20233;-71
2021/05/24 09:31:23;;;;;;;5.47;1.13;;;29.20;79.90;;;;;;5128068;27;20185;-71
2021/05/24 09:34:00;;;;;;;4.93;1.23;;;29.20;79.80;;;;;;5107371;27;20216;-71
2021/05/24 09:36:29;;;;;;;2.22;1.13;;;29.70;69.60;;;;;;5119376;27;20188;-71
2021/05/24 09:39:11;;;;;;;3.20;1.40;;;29.40;72.70;;;;;;5101943;27;20204;-70
2021/05/24 09:41:45;;;;;;;3.28;0.98;;;29.40;72.20;;;;;;5107064;27;20184;-71
2021/05/24 09:44:25;;;;;;;5.85;1.10;;;29.50;72.30;;;;;;5122917;27;20197;-71
2021/05/24 09:46:53;;;;;;;4.47;1.17;;;29.70;72.20;;;;;;5102681;27;20208;-71
2021/05/24 09:49:28;;;;;;;2.28;1.10;;;29.90;70.10;;;;;;5108436;27;20192;-70
2021/05/24 09:52:00;;;;;;;5.82;1.00;;;29.70;71.30;;;;;;5100354;27;20199;-71
2021/05/24 09:54:36;;;;;;;1.95;0.93;;;29.80;68.80;;;;;;5085512;27;20601;-70
2021/05/24 09:57:10;;;;;;;3.35;1.00;;;29.90;68.60;;;;;;5102249;27;20528;-70
2021/05/24 09:59:38;;;;;;;2.45;1.05;;;29.90;68.60;;;;;;5124672;27;20231;-71
2021/05/24 10:02:07;;;;;;;1.92;1.10;;;30.20;65.70;;;;;;5104135;27;20262;-70
2021/05/24 10:04:36;;;;;;;1.98;1.00;;;30.30;60.40;;;;;;5105594;27;20641;-70
2021/05/24 10:07:06;;;;;;;1.75;1.10;;;30.40;60.80;;;;;;5102521;27;20207;-71
2021/05/24 10:09:35;;;;;;;2.03;1.00;;;30.50;61.00;;;;;;5087483;27;20189;-70
2021/05/24 10:12:03;;;;;;;2.70;1.10;;;30.20;63.90;;;;;;5118265;27;20177;-70
2021/05/24 10:14:31;;;;;;;8.10;1.00;;;30.50;60.80;;;;;;5108666;27;20186;-72
2021/05/24 10:17:03;;;;;;;4.63;0.80;;;30.60;59.00;;;;;;5107124;27;20188;-72
2021/05/24 10:19:30;;;;;;;2.15;1.20;;;30.80;60.50;;;;;;5104878;27;20216;-70
2021/05/24 10:21:58;;;;;;;4.93;0.90;;;30.60;58.80;;;;;;5105927;27;20227;-72
2021/05/24 10:24:25;;;;;;;5.07;1.10;;;30.50;59.70;;;;;;5106177;28;20180;-70
2021/05/24 10:26:56;;;;;;;3.85;1.15;;;30.50;59.60;;;;;;5105609;28;20682;-72
2021/05/24 10:29:23;;;;;;;3.35;0.93;;;30.60;58.90;;;;;;5103814;28;20188;-72
2021/05/24 10:31:50;;;;;;;4.93;0.98;;;30.70;58.60;;;;;;5084330;28;20220;-69
2021/05/24 10:34:25;;;;;;;2.40;1.00;;;30.80;58.00;;;;;;5105542;28;20196;-70
2021/05/24 10:37:08;;;;;;;3.35;1.17;;;30.50;59.20;;;;;;5104772;27;20196;-70
2021/05/24 10:40:04;;;;;;;1.75;1.00;;;30.70;57.40;;;;;;5102855;27;20215;-72
2021/05/24 10:42:45;;;;;;;2.78;0.90;;;30.70;57.00;;;;;;5120458;27;20279;-70
2021/05/24 10:45:24;;;;;;;6.22;0.98;;;30.50;57.40;;;;;;5102993;28;20216;-72
2021/05/24 10:47:59;;;;;;;3.50;1.00;;;30.60;56.50;;;;;;5103672;27;20279;-71
2021/05/24 10:50:31;;;;;;;4.00;1.10;;;30.90;57.80;;;;;;5099925;28;20184;-72
2021/05/24 10:53:07;;;;;;;5.35;1.10;;;30.50;58.20;;;;;;5120274;27;20280;-72
2021/05/24 10:55:40;;;;;;;1.75;1.20;;;30.30;57.00;;;;;;5116856;27;20560;-71
2021/05/24 10:58:10;;;;;;;1.70;1.00;;;30.50;56.10;;;;;;5082276;28;20189;-72
2021/05/24 11:01:01;;;;;;;5.63;1.20;;;30.50;54.70;;;;;;5087313;27;20211;-72
2021/05/24 11:03:34;;;;;;;3.30;1.17;;;30.30;55.00;;;;;;5118905;27;20194;-72
2021/05/24 11:06:16;;;;;;;1.85;0.95;;;30.40;55.10;;;;;;5103305;28;20243;-70
2021/05/24 11:08:51;;;;;;;2.47;1.35;;;30.60;52.80;;;;;;5106563;28;20709;-70
2021/05/24 11:11:25;;;;;;;2.63;1.08;;;30.10;55.10;;;;;;5105454;27;20628;-70
2021/05/24 11:14:11;;;;;;;2.28;1.10;;;30.10;54.80;;;;;;5082797;28;20671;-72
2021/05/24 11:16:40;;;;;;;2.75;1.00;;;30.00;54.70;;;;;;5085116;28;20180;-69
2021/05/24 11:19:14;;;;;;;1.25;0.90;;;30.10;54.80;;;;;;5115020;28;20319;-71
2021/05/24 11:21:55;;;;;;;4.75;1.00;;;30.60;54.00;;;;;;5089570;27;20185;-70
2021/05/24 11:27:15;;;;;;;1.10;0.90;;;30.50;53.50;;;;;;5110698;27;20181;-70
2021/05/24 11:29:47;;;;;;;2.15;1.00;;;30.30;54.60;;;;;;5121969;27;20268;-69
2021/05/24 11:32:24;;;;;;;11.55;1.70;;;30.60;55.00;;;;;;5128875;27;20725;-70
2021/05/24 11:34:51;;;;;;;3.40;1.30;;;30.40;60.00;;;;;;5114919;27;20189;-70
2021/05/24 11:37:20;;;;;;;4.13;1.50;;;29.80;61.60;;;;;;5125107;27;20184;-70
2021/05/24 11:39:50;;;;;;;6.50;1.70;;;29.90;60.50;;;;;;5118185;27;20370;-69
2021/05/24 11:42:27;;;;;;;7.93;1.55;;;29.90;62.60;;;;;;5102123;27;20681;-69
2021/05/24 11:44:57;;;;;;;5.85;1.70;;;29.60;64.20;;;;;;5108296;27;20534;-70
2021/05/24 11:47:26;;;;;;;5.88;1.60;;;29.60;65.00;;;;;;5092637;27;20234;-70
2021/05/24 11:50:15;;;;;;;10.57;1.58;;;29.90;64.30;;;;;;5089998;27;20193;-69
2021/05/24 11:52:42;;;;;;;8.05;1.50;;;29.90;64.00;;;;;;5127179;27;20298;-70
2021/05/24 11:55:14;;;;;;;8.30;2.05;;;29.70;66.00;;;;;;5125773;27;20974;-70
2021/05/24 11:57:43;;;;;;;8.70;1.63;;;29.70;65.40;;;;;;5105069;27;20818;-70
2021/05/24 12:00:13;;;;;;;4.20;1.65;;;29.80;66.20;;;;;;5103819;27;20553;-70
2021/05/24 12:02:44;;;;;;;6.50;1.65;;;29.70;66.70;;;;;;5107816;27;20189;-70
2021/05/24 12:05:17;;;;;;;9.55;1.67;;;29.80;66.70;;;;;;5104755;27;20180;-70
2021/05/24 12:07:46;;;;;;;3.65;1.35;;;29.60;63.30;;;;;;5123575;27;20680;-70
2021/05/24 12:10:13;;;;;;;5.90;1.50;;;29.80;63.90;;;;;;5126170;27;20661;-70
2021/05/24 12:12:39;;;;;;;5.38;1.40;;;29.90;64.10;;;;;;5088849;27;20276;-70
2021/05/24 12:15:16;;;;;;;6.03;1.17;;;29.70;66.00;;;;;;5102863;27;20324;-71
2021/05/24 12:17:52;;;;;;;7.88;1.48;;;29.80;67.20;;;;;;5102322;27;20242;-69
2021/05/24 12:20:22;;;;;;;6.07;1.23;;;29.70;65.90;;;;;;5103007;27;20209;-70
2021/05/24 12:22:51;;;;;;;4.20;1.27;;;29.60;65.30;;;;;;5101893;27;20184;-69
2021/05/24 12:25:18;;;;;;;5.55;1.42;;;29.40;66.70;;;;;;5102864;27;20222;-69
2021/05/24 12:27:45;;;;;;;10.00;1.58;;;29.50;66.60;;;;;;5106717;27;20289;-69
2021/05/24 12:30:17;;;;;;;4.28;1.40;;;29.40;68.40;;;;;;5105631;27;20211;-69
2021/05/24 12:32:50;;;;;;;8.60;1.55;;;29.40;68.10;;;;;;5086286;27;20185;-70
2021/05/24 12:35:28;;;;;;;4.82;1.40;;;29.60;67.10;;;;;;5121969;27;20178;-71
2021/05/24 12:38:31;;;;;;;5.65;1.55;;;29.40;67.50;;;;;;5103498;27;20191;-71
2021/05/24 12:41:03;;;;;;;15.18;2.10;;;29.40;67.90;;;;;;5120809;27;20213;-70
2021/05/24 12:43:31;;;;;;;8.00;1.92;;;29.30;68.50;;;;;;5090785;27;20209;-70
2021/05/24 12:45:58;;;;;;;9.68;1.88;;;29.20;69.10;;;;;;5107662;27;20185;-70
2021/05/24 12:48:31;;;;;;;7.75;1.40;;;29.00;68.50;;;;;;5123958;27;20688;-69
2021/05/24 12:50:59;;;;;;;11.10;1.55;;;28.90;69.80;;;;;;5105486;27;20185;-69
2021/05/24 12:54:13;;;;;;;5.22;1.58;;;29.00;70.10;;;;;;5108950;27;20265;-69
2021/05/24 12:56:57;;;;;;;5.28;1.27;;;29.00;68.10;;;;;;5119795;27;20181;-70
2021/05/24 12:59:53;;;;;;;4.82;1.17;;;28.70;69.20;;;;;;5109053;27;20220;-69
2021/05/24 13:02:24;;;;;;;7.93;2.22;;;28.60;70.70;;;;;;5126448;27;20701;-69